Lady Haya — ZCYI — position and weather

sailwx.info

Track history (hours):
 
Tides and Currents Weather Stations Pressure Air Temp Water Temp Dewpoint Dewpoint Depression Visibility Wind Speed Wind Dir Waves Ship Positions

Lady Haya

Last reported at 2017-Jul-12 05:50 UTC. Time now 2017-Jul-25 22:36 UTC.
Position N 36°06' W 005°22'.
Warning: this ship's position is 13 days out of date.

Length 65 m; draft 4.3 m.

Type: Other ship. MMSI: 319004600.

Date/timePositionNaut miles runAvg speedWind from/ knotsBaromVisibWave heightAir tempDewpointWater temp
2017-Jul-12 05:50N 36°06' W 005°22'28812.1
2017-Jul-11 06:07N 38°17' W 000°00'214.0
2017-Jul-11 06:00N 38°18' E 000°01'714.1
2017-Jul-11 05:30N 38°24' E 000°06'714.1
2017-Jul-11 05:00N 38°30' E 000°11'714.0
2017-Jul-11 04:30N 38°35' E 000°17'3013.8
2017-Jul-11 02:19N 38°56' E 000°45'2014.4
2017-Jul-11 00:54N 39°10' E 001°04'614.2
2017-Jul-11 00:29N 39°15' E 001°09'814.1
2017-Jul-10 23:53N 39°20' E 001°17'813.9
2017-Jul-10 23:18N 39°26' E 001°25'2113.9
2017-Jul-10 21:48N 39°40' E 001°45'414.1
2017-Jul-10 21:30N 39°43' E 001°49'713.9
2017-Jul-10 21:00N 39°47' E 001°56'713.8
2017-Jul-10 20:30N 39°52' E 002°02'713.6
2017-Jul-10 20:00N 39°57' E 002°09'713.4
2017-Jul-10 19:30N 40°01' E 002°15'713.5
2017-Jul-10 19:00N 40°06' E 002°21'713.4
2017-Jul-10 18:30N 40°11' E 002°27'713.5
2017-Jul-10 18:00N 40°16' E 002°33'713.8
2017-Jul-10 17:30N 40°20' E 002°40'713.8
2017-Jul-10 17:00N 40°25' E 002°47'713.9
2017-Jul-10 16:30N 40°29' E 002°54'714.1
2017-Jul-10 16:01N 40°34' E 003°01'714.2
2017-Jul-10 15:30N 40°38' E 003°08'714.1
2017-Jul-10 15:00N 40°43' E 003°15'714.0
2017-Jul-10 14:29N 40°48' E 003°22'714.2
2017-Jul-10 13:58N 40°53' E 003°29'26214.3
2017-Jul-09 19:38N 43°42' E 007°60'214.4
2017-Jul-09 19:30N 43°43' E 008°02'714.2
2017-Jul-09 19:00N 43°47' E 008°10'714.0
2017-Jul-09 18:30N 43°51' E 008°18'713.9
2017-Jul-09 18:00N 43°55' E 008°26'713.9
2017-Jul-09 17:31N 43°59' E 008°34'913.8
2017-Jul-09 16:53N 44°04' E 008°44'513.8
2017-Jul-09 16:30N 44°07' E 008°50'713.9
2017-Jul-09 16:00N 44°10' E 008°58'713.8
2017-Jul-09 15:30N 44°14' E 009°06'713.0
2017-Jul-09 15:00N 44°18' E 009°14'  
2017-Jul-07 10:49N 44°18' E 009°16'411.3
2017-Jul-07 10:30N 44°15' E 009°19'611.5
2017-Jul-07 10:00N 44°10' E 009°23'611.7
2017-Jul-07 09:30N 44°05' E 009°27'611.5
2017-Jul-07 09:00N 43°60' E 009°30'611.5
2017-Jul-07 08:30N 43°55' E 009°34'611.4
2017-Jul-07 08:00N 43°50' E 009°38'611.3
2017-Jul-07 07:30N 43°45' E 009°42'611.4
2017-Jul-07 07:00N 43°40' E 009°46'611.3
2017-Jul-07 06:30N 43°36' E 009°52'611.4
2017-Jul-07 06:00N 43°33' E 009°58'611.2
2017-Jul-07 05:30N 43°30' E 010°05'611.7
2017-Jul-07 05:00N 43°32' E 010°13'4 8.0
2017-Jul-07 04:30N 43°33' E 010°18'0 0.2
2017-Jul-07 03:58N 43°33' E 010°18'0 0.0
2017-Jul-07 03:28N 43°33' E 010°18'0 0.0
2017-Jul-07 02:58N 43°33' E 010°18'0 0.0
2017-Jul-07 02:28N 43°33' E 010°18'0 0.0
2017-Jul-07 01:58N 43°33' E 010°18'0 0.0
2017-Jul-07 01:28N 43°33' E 010°18'0 0.0
2017-Jul-07 00:58N 43°33' E 010°18'0 0.0
2017-Jul-07 00:28N 43°33' E 010°18'0 0.0
2017-Jul-06 23:58N 43°33' E 010°18'0 0.0
2017-Jul-06 23:28N 43°33' E 010°18'0 0.0
2017-Jul-06 23:16N 43°33' E 010°18'0 0.0
2017-Jul-05 08:30N 43°33' E 010°18'0 0.0
2017-Jul-05 07:57N 43°33' E 010°18'0 0.0
2017-Jul-05 07:30N 43°33' E 010°18'0 0.0
2017-Jul-05 06:57N 43°33' E 010°18'0 0.0
2017-Jul-05 06:30N 43°33' E 010°18'0 0.0
2017-Jul-05 06:00N 43°33' E 010°18'0 0.0
2017-Jul-05 05:27N 43°33' E 010°18'0 0.0
2017-Jul-05 05:00N 43°33' E 010°18'0 0.0
2017-Jul-05 04:30N 43°33' E 010°18'0 0.0
2017-Jul-05 03:57N 43°33' E 010°18'0 0.0
2017-Jul-05 03:30N 43°33' E 010°18'0 0.0
2017-Jul-05 02:57N 43°33' E 010°18'0 0.0
2017-Jul-05 02:27N 43°33' E 010°18'0 0.0
2017-Jul-05 02:00N 43°33' E 010°18'0 0.0
2017-Jul-05 01:30N 43°33' E 010°18'0 0.0
2017-Jul-05 01:00N 43°33' E 010°18'0 0.0
2017-Jul-05 00:30N 43°33' E 010°18'0 0.0
2017-Jul-05 00:00N 43°33' E 010°18'0 0.0
2017-Jul-04 23:27N 43°33' E 010°18'0 0.0
2017-Jul-04 23:00N 43°33' E 010°18'0 0.0
2017-Jul-04 22:24N 43°33' E 010°18'0 0.0
2017-Jul-04 22:00N 43°33' E 010°18'0 0.0
2017-Jul-04 21:27N 43°33' E 010°18'0 0.0
2017-Jul-04 20:57N 43°33' E 010°18'0 0.0
2017-Jul-04 20:30N 43°33' E 010°18'0 0.0
2017-Jul-04 19:54N 43°33' E 010°18'0 0.0
2017-Jul-04 19:30N 43°33' E 010°18'0 0.0
2017-Jul-04 19:00N 43°33' E 010°18'0 0.0
2017-Jul-04 18:30N 43°33' E 010°18'0 0.0
2017-Jul-04 18:00N 43°33' E 010°18'0 0.0
2017-Jul-04 17:30N 43°33' E 010°18'0 0.0
2017-Jul-04 16:57N 43°33' E 010°18'0 0.0
2017-Jul-04 16:24N 43°33' E 010°18'0 0.0
2017-Jul-04 15:57N 43°33' E 010°18'0 0.0
2017-Jul-04 15:27N 43°33' E 010°18'0 0.0
2017-Jul-04 15:00N 43°33' E 010°18'0 0.0
2017-Jul-04 13:57N 43°33' E 010°18'0 0.0
2017-Jul-04 13:30N 43°33' E 010°18'0 0.0
2017-Jul-04 12:56N 43°33' E 010°18'0 0.0
2017-Jul-04 12:29N 43°33' E 010°18'0 0.0
2017-Jul-04 11:59N 43°33' E 010°18'0 0.0
2017-Jul-04 11:29N 43°33' E 010°18'0 0.0
2017-Jul-04 10:53N 43°33' E 010°18'0 0.0
2017-Jul-04 10:29N 43°33' E 010°18'0 0.0
2017-Jul-04 09:59N 43°33' E 010°18'0 0.0
2017-Jul-04 09:26N 43°33' E 010°18'0 0.0
2017-Jul-04 08:59N 43°33' E 010°18'0 0.0
2017-Jul-04 08:29N 43°33' E 010°18'0 0.0
2017-Jul-04 07:59N 43°33' E 010°18'0 0.0
2017-Jul-04 07:29N 43°33' E 010°18'0 0.0
2017-Jul-04 06:59N 43°33' E 010°18'0 0.0
2017-Jul-04 06:26N 43°33' E 010°18'0 0.0
2017-Jul-04 05:59N 43°33' E 010°18'0 0.0
2017-Jul-04 05:29N 43°33' E 010°18'0 0.0
2017-Jul-04 04:50N 43°33' E 010°18'0 0.0
2017-Jul-04 04:26N 43°33' E 010°18'0 0.0
2017-Jul-04 03:56N 43°33' E 010°18'0 0.0
2017-Jul-04 03:26N 43°33' E 010°18'0 0.0
2017-Jul-04 02:59N 43°33' E 010°18'0 0.0
2017-Jul-04 02:17N 43°33' E 010°18'0 0.0
2017-Jul-04 01:59N 43°33' E 010°18'0 0.0
2017-Jul-04 01:29N 43°33' E 010°18'0 0.0
2017-Jul-04 00:59N 43°33' E 010°18'0 0.0
2017-Jul-04 00:26N 43°33' E 010°18'0 0.0
2017-Jul-03 23:56N 43°33' E 010°18'0 0.0
2017-Jul-03 23:26N 43°33' E 010°18'0 0.0
2017-Jul-03 22:59N 43°33' E 010°18'0 0.0
2017-Jul-03 22:23N 43°33' E 010°18'0 0.0
2017-Jul-03 21:53N 43°33' E 010°18'0 0.0
2017-Jul-03 21:29N 43°33' E 010°18'0 0.0
2017-Jul-03 20:53N 43°33' E 010°18'0 0.0
2017-Jul-03 20:29N 43°33' E 010°18'0 0.0
2017-Jul-03 19:59N 43°33' E 010°18'0 0.0
2017-Jul-03 19:23N 43°33' E 010°18'0 0.0
2017-Jul-03 18:59N 43°33' E 010°18'0 0.0
2017-Jul-03 18:29N 43°33' E 010°18'0 0.0
2017-Jul-03 17:59N 43°33' E 010°18'0 0.0
2017-Jul-03 17:29N 43°33' E 010°18'0 0.0
2017-Jul-03 16:59N 43°33' E 010°18'0 0.0
2017-Jul-03 16:29N 43°33' E 010°18'0 0.0
2017-Jul-03 15:56N 43°33' E 010°18'0 0.0
2017-Jul-03 15:29N 43°33' E 010°18'0 0.0
2017-Jul-03 14:59N 43°33' E 010°18'0 0.0
2017-Jul-03 13:59N 43°33' E 010°18'0 0.0
2017-Jul-03 13:29N 43°33' E 010°18'0 0.0
2017-Jul-03 12:59N 43°33' E 010°18'0 0.0
2017-Jul-03 12:29N 43°33' E 010°18'0 0.0
2017-Jul-03 11:59N 43°33' E 010°18'0 0.0
2017-Jul-03 11:29N 43°33' E 010°18'0 0.0
2017-Jul-03 10:59N 43°33' E 010°18'0 0.0
2017-Jul-03 10:26N 43°33' E 010°18'0 0.0
2017-Jul-03 09:59N 43°33' E 010°18'0 0.0
2017-Jul-03 09:29N 43°33' E 010°18'0 0.0
2017-Jul-03 08:53N 43°33' E 010°18'0 0.0
2017-Jul-03 08:29N 43°33' E 010°18'0 0.0
2017-Jul-03 07:59N 43°33' E 010°18'0 0.0
2017-Jul-03 07:26N 43°33' E 010°18'0 0.0
2017-Jul-03 06:59N 43°33' E 010°18'0 0.0
2017-Jul-03 06:29N 43°33' E 010°18'0 0.0
2017-Jul-03 05:59N 43°33' E 010°18'0 0.0
2017-Jul-03 05:29N 43°33' E 010°18'0 0.0
2017-Jul-03 04:53N 43°33' E 010°18'0 0.0
2017-Jul-03 04:26N 43°33' E 010°18'0 0.0
2017-Jul-03 03:56N 43°33' E 010°18'0 0.0
2017-Jul-03 03:29N 43°33' E 010°18'0 0.0
2017-Jul-03 02:56N 43°33' E 010°18'0 0.0
2017-Jul-03 02:29N 43°33' E 010°18'0 0.0
2017-Jul-03 01:56N 43°33' E 010°18'0 0.0
2017-Jul-03 01:29N 43°33' E 010°18'0 0.0
2017-Jul-03 00:56N 43°33' E 010°18'0 0.0
2017-Jul-03 00:20N 43°33' E 010°18'0 0.0
2017-Jul-02 23:59N 43°33' E 010°18'0 0.0
2017-Jul-02 23:26N 43°33' E 010°18'0 0.0
2017-Jul-02 22:56N 43°33' E 010°18'0 0.0
2017-Jul-02 22:29N 43°33' E 010°18'0 0.0
2017-Jul-02 21:59N 43°33' E 010°18'0 0.0
2017-Jul-02 21:23N 43°33' E 010°18'0 0.0
2017-Jul-02 20:59N 43°33' E 010°18'0 0.0
2017-Jul-02 20:23N 43°33' E 010°18'0 0.0
2017-Jul-02 19:56N 43°33' E 010°18'0 0.0
2017-Jul-02 19:29N 43°33' E 010°18'0 0.0
2017-Jul-02 18:59N 43°33' E 010°18'0 0.0
2017-Jul-02 18:29N 43°33' E 010°18'0 0.0
2017-Jul-02 17:53N 43°33' E 010°18'0 0.0
2017-Jul-02 17:23N 43°33' E 010°18'0 0.0
2017-Jul-02 16:59N 43°33' E 010°18'0 0.0
2017-Jul-02 16:29N 43°33' E 010°18'0 0.0
2017-Jul-02 15:59N 43°33' E 010°18'0 0.0
2017-Jul-02 15:26N 43°33' E 010°18'0 0.0
2017-Jul-02 14:59N 43°33' E 010°18'0 0.0
2017-Jul-02 13:59N 43°33' E 010°18'0 0.0
2017-Jul-02 13:29N 43°33' E 010°18'0 0.0
2017-Jul-02 12:59N 43°33' E 010°18'0 0.0
2017-Jul-02 12:29N 43°33' E 010°18'0 0.0
2017-Jul-02 11:59N 43°33' E 010°18'0 0.0
2017-Jul-02 11:26N 43°33' E 010°18'0 0.0
2017-Jul-02 10:59N 43°33' E 010°18'0 0.0
2017-Jul-02 10:27N 43°33' E 010°18'0 0.0
2017-Jul-02 10:00N 43°33' E 010°18'0 0.0
2017-Jul-02 09:30N 43°33' E 010°18'0 0.0
2017-Jul-02 09:00N 43°33' E 010°18'0 0.0
2017-Jul-02 08:30N 43°33' E 010°18'0 0.0
2017-Jul-02 08:00N 43°33' E 010°18'0 0.0
2017-Jul-02 07:30N 43°33' E 010°18'0 0.0
2017-Jul-02 07:00N 43°33' E 010°18'0 0.0
2017-Jul-02 06:30N 43°33' E 010°18'0 0.0
2017-Jul-02 05:54N 43°33' E 010°18'  
Track history (hours):
 
Tides and Currents Weather Stations Pressure Air Temp Water Temp Dewpoint Dewpoint Depression Visibility Wind Speed Wind Dir Waves Ship Positions

Lady Haya

Last reported at 2017-Jul-12 05:50 UTC. Time now 2017-Jul-25 22:36 UTC.
Position N 36°06' W 005°22'.
Warning: this ship's position is 13 days out of date.

Length 65 m; draft 4.3 m.

Type: Other ship. MMSI: 319004600.

Date/timePositionNaut miles runAvg speedWind from/ knotsBaromVisibWave heightAir tempDewpointWater temp
2017-Jul-12 05:50N 36°06' W 005°22'28812.1
2017-Jul-11 06:07N 38°17' W 000°00'214.0
2017-Jul-11 06:00N 38°18' E 000°01'714.1
2017-Jul-11 05:30N 38°24' E 000°06'714.1
2017-Jul-11 05:00N 38°30' E 000°11'714.0
2017-Jul-11 04:30N 38°35' E 000°17'3013.8
2017-Jul-11 02:19N 38°56' E 000°45'2014.4
2017-Jul-11 00:54N 39°10' E 001°04'614.2
2017-Jul-11 00:29N 39°15' E 001°09'814.1
2017-Jul-10 23:53N 39°20' E 001°17'813.9
2017-Jul-10 23:18N 39°26' E 001°25'2113.9
2017-Jul-10 21:48N 39°40' E 001°45'414.1
2017-Jul-10 21:30N 39°43' E 001°49'713.9
2017-Jul-10 21:00N 39°47' E 001°56'713.8
2017-Jul-10 20:30N 39°52' E 002°02'713.6
2017-Jul-10 20:00N 39°57' E 002°09'713.4
2017-Jul-10 19:30N 40°01' E 002°15'713.5
2017-Jul-10 19:00N 40°06' E 002°21'713.4
2017-Jul-10 18:30N 40°11' E 002°27'713.5
2017-Jul-10 18:00N 40°16' E 002°33'713.8
2017-Jul-10 17:30N 40°20' E 002°40'713.8
2017-Jul-10 17:00N 40°25' E 002°47'713.9
2017-Jul-10 16:30N 40°29' E 002°54'714.1
2017-Jul-10 16:01N 40°34' E 003°01'714.2
2017-Jul-10 15:30N 40°38' E 003°08'714.1
2017-Jul-10 15:00N 40°43' E 003°15'714.0
2017-Jul-10 14:29N 40°48' E 003°22'714.2
2017-Jul-10 13:58N 40°53' E 003°29'26214.3
2017-Jul-09 19:38N 43°42' E 007°60'214.4
2017-Jul-09 19:30N 43°43' E 008°02'714.2
2017-Jul-09 19:00N 43°47' E 008°10'714.0
2017-Jul-09 18:30N 43°51' E 008°18'713.9
2017-Jul-09 18:00N 43°55' E 008°26'713.9
2017-Jul-09 17:31N 43°59' E 008°34'913.8
2017-Jul-09 16:53N 44°04' E 008°44'513.8
2017-Jul-09 16:30N 44°07' E 008°50'713.9
2017-Jul-09 16:00N 44°10' E 008°58'713.8
2017-Jul-09 15:30N 44°14' E 009°06'713.0
2017-Jul-09 15:00N 44°18' E 009°14'  
2017-Jul-07 10:49N 44°18' E 009°16'411.3
2017-Jul-07 10:30N 44°15' E 009°19'611.5
2017-Jul-07 10:00N 44°10' E 009°23'611.7
2017-Jul-07 09:30N 44°05' E 009°27'611.5
2017-Jul-07 09:00N 43°60' E 009°30'611.5
2017-Jul-07 08:30N 43°55' E 009°34'611.4
2017-Jul-07 08:00N 43°50' E 009°38'611.3
2017-Jul-07 07:30N 43°45' E 009°42'611.4
2017-Jul-07 07:00N 43°40' E 009°46'611.3
2017-Jul-07 06:30N 43°36' E 009°52'611.4
2017-Jul-07 06:00N 43°33' E 009°58'611.2
2017-Jul-07 05:30N 43°30' E 010°05'611.7
2017-Jul-07 05:00N 43°32' E 010°13'4 8.0
2017-Jul-07 04:30N 43°33' E 010°18'0 0.2
2017-Jul-07 03:58N 43°33' E 010°18'0 0.0
2017-Jul-07 03:28N 43°33' E 010°18'0 0.0
2017-Jul-07 02:58N 43°33' E 010°18'0 0.0
2017-Jul-07 02:28N 43°33' E 010°18'0 0.0
2017-Jul-07 01:58N 43°33' E 010°18'0 0.0
2017-Jul-07 01:28N 43°33' E 010°18'0 0.0
2017-Jul-07 00:58N 43°33' E 010°18'0 0.0
2017-Jul-07 00:28N 43°33' E 010°18'0 0.0
2017-Jul-06 23:58N 43°33' E 010°18'0 0.0
2017-Jul-06 23:28N 43°33' E 010°18'0 0.0
2017-Jul-06 23:16N 43°33' E 010°18'0 0.0
2017-Jul-05 08:30N 43°33' E 010°18'0 0.0
2017-Jul-05 07:57N 43°33' E 010°18'0 0.0
2017-Jul-05 07:30N 43°33' E 010°18'0 0.0
2017-Jul-05 06:57N 43°33' E 010°18'0 0.0
2017-Jul-05 06:30N 43°33' E 010°18'0 0.0
2017-Jul-05 06:00N 43°33' E 010°18'0 0.0
2017-Jul-05 05:27N 43°33' E 010°18'0 0.0
2017-Jul-05 05:00N 43°33' E 010°18'0 0.0
2017-Jul-05 04:30N 43°33' E 010°18'0 0.0
2017-Jul-05 03:57N 43°33' E 010°18'0 0.0
2017-Jul-05 03:30N 43°33' E 010°18'0 0.0
2017-Jul-05 02:57N 43°33' E 010°18'0 0.0
2017-Jul-05 02:27N 43°33' E 010°18'0 0.0
2017-Jul-05 02:00N 43°33' E 010°18'0 0.0
2017-Jul-05 01:30N 43°33' E 010°18'0 0.0
2017-Jul-05 01:00N 43°33' E 010°18'0 0.0
2017-Jul-05 00:30N 43°33' E 010°18'0 0.0
2017-Jul-05 00:00N 43°33' E 010°18'0 0.0
2017-Jul-04 23:27N 43°33' E 010°18'0 0.0
2017-Jul-04 23:00N 43°33' E 010°18'0 0.0
2017-Jul-04 22:24N 43°33' E 010°18'0 0.0
2017-Jul-04 22:00N 43°33' E 010°18'0 0.0
2017-Jul-04 21:27N 43°33' E 010°18'0 0.0
2017-Jul-04 20:57N 43°33' E 010°18'0 0.0
2017-Jul-04 20:30N 43°33' E 010°18'0 0.0
2017-Jul-04 19:54N 43°33' E 010°18'0 0.0
2017-Jul-04 19:30N 43°33' E 010°18'0 0.0
2017-Jul-04 19:00N 43°33' E 010°18'0 0.0
2017-Jul-04 18:30N 43°33' E 010°18'0 0.0
2017-Jul-04 18:00N 43°33' E 010°18'0 0.0
2017-Jul-04 17:30N 43°33' E 010°18'0 0.0
2017-Jul-04 16:57N 43°33' E 010°18'0 0.0
2017-Jul-04 16:24N 43°33' E 010°18'0 0.0
2017-Jul-04 15:57N 43°33' E 010°18'0 0.0
2017-Jul-04 15:27N 43°33' E 010°18'0 0.0
2017-Jul-04 15:00N 43°33' E 010°18'0 0.0
2017-Jul-04 13:57N 43°33' E 010°18'0 0.0
2017-Jul-04 13:30N 43°33' E 010°18'0 0.0
2017-Jul-04 12:56N 43°33' E 010°18'0 0.0
2017-Jul-04 12:29N 43°33' E 010°18'0 0.0
2017-Jul-04 11:59N 43°33' E 010°18'0 0.0
2017-Jul-04 11:29N 43°33' E 010°18'0 0.0
2017-Jul-04 10:53N 43°33' E 010°18'0 0.0
2017-Jul-04 10:29N 43°33' E 010°18'0 0.0
2017-Jul-04 09:59N 43°33' E 010°18'0 0.0
2017-Jul-04 09:26N 43°33' E 010°18'0 0.0
2017-Jul-04 08:59N 43°33' E 010°18'0 0.0
2017-Jul-04 08:29N 43°33' E 010°18'0 0.0
2017-Jul-04 07:59N 43°33' E 010°18'0 0.0
2017-Jul-04 07:29N 43°33' E 010°18'0 0.0
2017-Jul-04 06:59N 43°33' E 010°18'0 0.0
2017-Jul-04 06:26N 43°33' E 010°18'0 0.0
2017-Jul-04 05:59N 43°33' E 010°18'0 0.0
2017-Jul-04 05:29N 43°33' E 010°18'0 0.0
2017-Jul-04 04:50N 43°33' E 010°18'0 0.0
2017-Jul-04 04:26N 43°33' E 010°18'0 0.0
2017-Jul-04 03:56N 43°33' E 010°18'0 0.0
2017-Jul-04 03:26N 43°33' E 010°18'0 0.0
2017-Jul-04 02:59N 43°33' E 010°18'0 0.0
2017-Jul-04 02:17N 43°33' E 010°18'0 0.0
2017-Jul-04 01:59N 43°33' E 010°18'0 0.0
2017-Jul-04 01:29N 43°33' E 010°18'0 0.0
2017-Jul-04 00:59N 43°33' E 010°18'0 0.0
2017-Jul-04 00:26N 43°33' E 010°18'0 0.0
2017-Jul-03 23:56N 43°33' E 010°18'0 0.0
2017-Jul-03 23:26N 43°33' E 010°18'0 0.0
2017-Jul-03 22:59N 43°33' E 010°18'0 0.0
2017-Jul-03 22:23N 43°33' E 010°18'0 0.0
2017-Jul-03 21:53N 43°33' E 010°18'0 0.0
2017-Jul-03 21:29N 43°33' E 010°18'0 0.0
2017-Jul-03 20:53N 43°33' E 010°18'0 0.0
2017-Jul-03 20:29N 43°33' E 010°18'0 0.0
2017-Jul-03 19:59N 43°33' E 010°18'0 0.0
2017-Jul-03 19:23N 43°33' E 010°18'0 0.0
2017-Jul-03 18:59N 43°33' E 010°18'0 0.0
2017-Jul-03 18:29N 43°33' E 010°18'0 0.0
2017-Jul-03 17:59N 43°33' E 010°18'0 0.0
2017-Jul-03 17:29N 43°33' E 010°18'0 0.0
2017-Jul-03 16:59N 43°33' E 010°18'0 0.0
2017-Jul-03 16:29N 43°33' E 010°18'0 0.0
2017-Jul-03 15:56N 43°33' E 010°18'0 0.0
2017-Jul-03 15:29N 43°33' E 010°18'0 0.0
2017-Jul-03 14:59N 43°33' E 010°18'0 0.0
2017-Jul-03 13:59N 43°33' E 010°18'0 0.0
2017-Jul-03 13:29N 43°33' E 010°18'0 0.0
2017-Jul-03 12:59N 43°33' E 010°18'0 0.0
2017-Jul-03 12:29N 43°33' E 010°18'0 0.0
2017-Jul-03 11:59N 43°33' E 010°18'0 0.0
2017-Jul-03 11:29N 43°33' E 010°18'0 0.0
2017-Jul-03 10:59N 43°33' E 010°18'0 0.0
2017-Jul-03 10:26N 43°33' E 010°18'0 0.0
2017-Jul-03 09:59N 43°33' E 010°18'0 0.0
2017-Jul-03 09:29N 43°33' E 010°18'0 0.0
2017-Jul-03 08:53N 43°33' E 010°18'0 0.0
2017-Jul-03 08:29N 43°33' E 010°18'0 0.0
2017-Jul-03 07:59N 43°33' E 010°18'0 0.0
2017-Jul-03 07:26N 43°33' E 010°18'0 0.0
2017-Jul-03 06:59N 43°33' E 010°18'0 0.0
2017-Jul-03 06:29N 43°33' E 010°18'0 0.0
2017-Jul-03 05:59N 43°33' E 010°18'0 0.0
2017-Jul-03 05:29N 43°33' E 010°18'0 0.0
2017-Jul-03 04:53N 43°33' E 010°18'0 0.0
2017-Jul-03 04:26N 43°33' E 010°18'0 0.0
2017-Jul-03 03:56N 43°33' E 010°18'0 0.0
2017-Jul-03 03:29N 43°33' E 010°18'0 0.0
2017-Jul-03 02:56N 43°33' E 010°18'0 0.0
2017-Jul-03 02:29N 43°33' E 010°18'0 0.0
2017-Jul-03 01:56N 43°33' E 010°18'0 0.0
2017-Jul-03 01:29N 43°33' E 010°18'0 0.0
2017-Jul-03 00:56N 43°33' E 010°18'0 0.0
2017-Jul-03 00:20N 43°33' E 010°18'0 0.0
2017-Jul-02 23:59N 43°33' E 010°18'0 0.0
2017-Jul-02 23:26N 43°33' E 010°18'0 0.0
2017-Jul-02 22:56N 43°33' E 010°18'0 0.0
2017-Jul-02 22:29N 43°33' E 010°18'0 0.0
2017-Jul-02 21:59N 43°33' E 010°18'0 0.0
2017-Jul-02 21:23N 43°33' E 010°18'0 0.0
2017-Jul-02 20:59N 43°33' E 010°18'0 0.0
2017-Jul-02 20:23N 43°33' E 010°18'0 0.0
2017-Jul-02 19:56N 43°33' E 010°18'0 0.0
2017-Jul-02 19:29N 43°33' E 010°18'0 0.0
2017-Jul-02 18:59N 43°33' E 010°18'0 0.0
2017-Jul-02 18:29N 43°33' E 010°18'0 0.0
2017-Jul-02 17:53N 43°33' E 010°18'0 0.0
2017-Jul-02 17:23N 43°33' E 010°18'0 0.0
2017-Jul-02 16:59N 43°33' E 010°18'0 0.0
2017-Jul-02 16:29N 43°33' E 010°18'0 0.0
2017-Jul-02 15:59N 43°33' E 010°18'0 0.0
2017-Jul-02 15:26N 43°33' E 010°18'0 0.0
2017-Jul-02 14:59N 43°33' E 010°18'0 0.0
2017-Jul-02 13:59N 43°33' E 010°18'0 0.0
2017-Jul-02 13:29N 43°33' E 010°18'0 0.0
2017-Jul-02 12:59N 43°33' E 010°18'0 0.0
2017-Jul-02 12:29N 43°33' E 010°18'0 0.0
2017-Jul-02 11:59N 43°33' E 010°18'0 0.0
2017-Jul-02 11:26N 43°33' E 010°18'0 0.0
2017-Jul-02 10:59N 43°33' E 010°18'0 0.0
2017-Jul-02 10:27N 43°33' E 010°18'0 0.0
2017-Jul-02 10:00N 43°33' E 010°18'0 0.0
2017-Jul-02 09:30N 43°33' E 010°18'0 0.0
2017-Jul-02 09:00N 43°33' E 010°18'0 0.0
2017-Jul-02 08:30N 43°33' E 010°18'0 0.0
2017-Jul-02 08:00N 43°33' E 010°18'0 0.0
2017-Jul-02 07:30N 43°33' E 010°18'0 0.0
2017-Jul-02 07:00N 43°33' E 010°18'0 0.0
2017-Jul-02 06:30N 43°33' E 010°18'0 0.0
2017-Jul-02 05:54N 43°33' E 010°18'  

Dump ship's entire track history